aviador You're here:

PAZK Decoded Metar

EUREKA in AK, USA
Report Time2018-02-17 22:56:00
UTC Time2018-02-17 23:42:40
Flight Rules vfr VFR
Wind120° at 04 kt
W.Rank120° ranks 22
Current wind is below 120° avg. (5.3)
Visibility9999 m
Phenomena:N/A
Clouds:N/A
Expected CloudBase > 4,000 ft AGL from Temp-Dew spread
CeilingNone
Temp-2°C (ISA -10)
Dew Point-12°C (47% RH)
AAT-6.6°C
QNH1034 hPa
Density Alt1,352 ft
Elevation3,291 ft
Report Wrong Elevation
Raw Report
PAZK 172256Z AUTO 12004KT 10SM CLR M02/M12 A3053 RMK AO2 SLP412
T10171122 FZRANO=

Extra information for PAZK:More info

Metar Taf Metar & Taf Last 4 Metars F.Rules Stats Wind Profile Meteogram Temp Stats Airport Information Weather charts Add Link Nearby VenuesMetar ALERT Operation Metar Decoded Social comments

AIRNAV info for PAZK